Time;durP1;ratioP1;P1;durP2;ratioP2;P2;SDS_P1;SDS_P2;PMS_P1;PMS_P2;Temp;Humidity;BMP_temperature;BMP_pressure;BME280_temperature;BME280_humidity;BME280_pressure;Samples;Min_cycle;Max_cycle;Signal;HPM_P1;HPM_P2
2021/03/17 00:02:19;;;;;;;13.38;2.50;;;;;;;-1.44;85.95;101796.53;5031299;28;20137;-69
2021/03/17 00:05:06;;;;;;;12.20;2.92;;;;;;;-1.37;86.49;101795.38;5031326;28;20048;-68
2021/03/17 00:07:50;;;;;;;9.18;2.22;;;;;;;-1.41;86.24;101788.53;5030164;28;20053;-69
2021/03/17 00:10:39;;;;;;;8.50;2.00;;;;;;;-1.44;86.17;101798.28;5031234;28;20137;-69
2021/03/17 00:13:26;;;;;;;17.48;3.90;;;;;;;-1.50;86.06;101795.00;5031310;28;20057;-69
2021/03/17 00:16:09;;;;;;;8.77;2.70;;;;;;;-1.57;85.87;101793.53;5030231;28;20048;-69
2021/03/17 00:18:55;;;;;;;8.65;1.90;;;;;;;-1.58;86.14;101801.44;5030819;28;20498;-69
2021/03/17 00:21:39;;;;;;;16.88;3.58;;;;;;;-1.54;86.65;101803.88;5016585;28;20497;-69
2021/03/17 00:24:23;;;;;;;21.77;2.97;;;;;;;-1.53;86.97;101802.97;5031082;28;20040;-69
2021/03/17 00:27:07;;;;;;;13.20;2.92;;;;;;;-1.46;86.88;101806.19;5031188;28;20102;-69
2021/03/17 00:29:51;;;;;;;15.32;2.58;;;;;;;-1.46;86.65;101800.13;5016231;28;20573;-69
2021/03/17 00:32:35;;;;;;;12.43;2.00;;;;;;;-1.41;86.70;101798.16;5031086;28;20500;-69
2021/03/17 00:35:19;;;;;;;13.63;2.13;;;;;;;-1.44;86.43;101801.75;5016278;28;20048;-69
2021/03/17 00:38:04;;;;;;;14.38;2.67;;;;;;;-1.42;86.81;101802.56;5030717;28;20120;-68
2021/03/17 00:40:48;;;;;;;12.90;2.33;;;;;;;-1.20;87.35;101801.72;5031277;28;20068;-69
2021/03/17 00:43:32;;;;;;;10.52;2.67;;;;;;;-1.09;87.57;101804.75;5030863;28;20112;-69
2021/03/17 00:46:15;;;;;;;15.77;5.20;;;;;;;-1.16;87.22;101808.53;5030990;28;20064;-69
2021/03/17 00:48:41;;;;;;;14.10;3.90;;;;;;;-1.24;87.17;101806.25;5013468;28;20034;-69
2021/03/17 00:51:15;;;;;;;11.13;2.08;;;;;;;-1.41;87.00;101806.03;5029948;28;20501;-69
2021/03/17 00:53:58;;;;;;;15.38;3.25;;;;;;;-1.44;87.07;101803.53;5030811;28;20129;-69
2021/03/17 00:56:25;;;;;;;20.25;4.15;;;;;;;-1.54;87.01;101806.50;5013507;28;20128;-69
2021/03/17 00:58:50;;;;;;;15.37;2.53;;;;;;;-1.58;86.84;101810.16;5047370;28;20037;-69
2021/03/17 01:01:15;;;;;;;16.03;2.03;;;;;;;-1.55;87.28;101806.56;5034525;28;20038;-69
2021/03/17 01:03:41;;;;;;;15.67;3.03;;;;;;;-1.47;87.20;101799.28;5033681;28;20037;-69
2021/03/17 01:06:06;;;;;;;14.45;3.10;;;;;;;-1.34;87.71;101794.38;5034431;28;20109;-69
2021/03/17 01:08:31;;;;;;;13.63;2.67;;;;;;;-1.25;87.65;101798.44;5034010;28;20037;-69
2021/03/17 01:10:57;;;;;;;13.45;2.88;;;;;;;-1.29;87.23;101795.94;5033466;28;20068;-69
2021/03/17 01:13:22;;;;;;;9.35;2.33;;;;;;;-1.23;87.50;101807.09;5034449;28;20470;-69
2021/03/17 01:15:48;;;;;;;12.50;2.40;;;;;;;-1.20;87.42;101806.94;5034367;28;20040;-69
2021/03/17 01:18:13;;;;;;;7.50;1.85;;;;;;;-1.29;86.85;101806.41;5032837;28;20463;-69
2021/03/17 01:20:39;;;;;;;15.45;3.17;;;;;;;-1.35;86.82;101814.50;5033335;28;20091;-69
2021/03/17 01:23:05;;;;;;;13.43;2.38;;;;;;;-1.35;87.23;101814.50;5016572;28;20445;-69
2021/03/17 01:25:37;;;;;;;16.95;2.30;;;;;;;-1.33;87.03;101817.06;5033205;28;20120;-69
2021/03/17 01:28:04;;;;;;;11.90;1.92;;;;;;;-1.24;86.82;101813.22;5033815;28;20053;-69
2021/03/17 01:30:37;;;;;;;14.25;3.13;;;;;;;-1.30;86.56;101816.94;5034038;28;20099;-69
2021/03/17 01:33:04;;;;;;;19.50;2.25;;;;;;;-1.35;86.72;101818.91;5033880;28;20625;-69
2021/03/17 01:35:29;;;;;;;9.43;2.03;;;;;;;-1.39;86.93;101818.16;5033877;28;20362;-69
2021/03/17 01:37:54;;;;;;;21.33;5.00;;;;;;;-1.42;87.26;101817.44;5033581;28;20041;-69
2021/03/17 01:40:23;;;;;;;10.45;1.90;;;;;;;-1.39;87.38;101820.78;5016487;28;20044;-69
2021/03/17 01:42:49;;;;;;;12.90;4.10;;;;;;;-1.46;87.18;101821.91;5033764;28;20040;-69
2021/03/17 01:45:16;;;;;;;17.40;4.00;;;;;;;-1.49;87.17;101824.66;5016409;28;20758;-69
2021/03/17 01:47:43;;;;;;;13.88;3.45;;;;;;;-1.57;87.26;101821.47;5033414;28;20037;-69
2021/03/17 01:50:13;;;;;;;13.95;2.88;;;;;;;-1.56;87.52;101818.81;5032571;28;20060;-69
2021/03/17 01:52:39;;;;;;;9.90;2.42;;;;;;;-1.61;87.25;101825.97;5016149;28;20128;-69
2021/03/17 01:55:06;;;;;;;10.60;2.42;;;;;;;-1.61;87.47;101830.38;5033621;28;20171;-69
2021/03/17 01:57:33;;;;;;;15.20;2.88;;;;;;;-1.67;87.30;101828.81;5015654;28;20095;-69
2021/03/17 01:59:58;;;;;;;13.18;3.10;;;;;;;-1.59;87.72;101825.91;5033510;28;20465;-69
2021/03/17 02:02:23;;;;;;;10.07;2.77;;;;;;;-1.63;87.47;101826.97;5032467;28;20030;-69
2021/03/17 02:04:49;;;;;;;18.33;2.43;;;;;;;-1.68;87.15;101821.91;5048969;28;20829;-69
2021/03/17 02:07:15;;;;;;;15.02;3.20;;;;;;;-1.73;87.10;101826.44;5032382;28;20288;-69
2021/03/17 02:09:41;;;;;;;9.10;2.33;;;;;;;-1.78;87.34;101824.00;5032805;28;20474;-69
2021/03/17 02:12:15;;;;;;;10.50;2.45;;;;;;;-1.82;87.22;101819.78;5032807;28;20041;-69
2021/03/17 02:15:19;;;;;;;10.77;2.95;;;;;;;-1.90;87.08;101821.81;5033188;28;20132;-69
2021/03/17 02:17:47;;;;;;;20.17;2.60;;;;;;;-1.93;87.29;101811.47;5033054;28;20115;-69
2021/03/17 02:20:31;;;;;;;16.10;2.47;;;;;;;-1.96;87.26;101807.19;5033113;28;20033;-69
2021/03/17 02:23:11;;;;;;;11.07;3.88;;;;;;;-1.97;87.52;101805.50;5032229;28;20041;-69
2021/03/17 02:26:02;;;;;;;11.75;2.85;;;;;;;-1.86;87.96;101805.09;5032876;28;20045;-69
2021/03/17 02:28:37;;;;;;;13.70;2.15;;;;;;;-1.87;87.99;101805.13;5032660;28;20049;-68
2021/03/17 02:31:39;;;;;;;11.10;2.65;;;;;;;-1.83;88.26;101809.34;5033035;28;20037;-68
2021/03/17 02:34:08;;;;;;;21.48;3.78;;;;;;;-1.83;88.68;101807.59;5032788;28;20037;-69
2021/03/17 02:36:36;;;;;;;14.30;2.80;;;;;;;-1.83;88.58;101807.59;5031901;28;20088;-69
2021/03/17 02:39:08;;;;;;;7.55;2.20;;;;;;;-1.86;89.16;101814.72;5032348;28;20051;-69
2021/03/17 02:41:46;;;;;;;7.95;2.78;;;;;;;-1.89;88.61;101806.97;5032047;28;20048;-69
2021/03/17 02:44:16;;;;;;;16.42;3.28;;;;;;;-1.92;88.59;101808.81;5031599;28;20425;-69
2021/03/17 02:46:43;;;;;;;15.75;3.25;;;;;;;-1.88;88.63;101800.81;5032525;28;20036;-69
2021/03/17 02:49:13;;;;;;;11.07;2.63;;;;;;;-1.87;88.39;101803.41;5032269;28;20075;-69
2021/03/17 02:51:43;;;;;;;19.83;3.20;;;;;;;-1.88;88.25;101809.53;5032545;28;20164;-69
2021/03/17 02:54:11;;;;;;;10.05;2.35;;;;;;;-1.89;88.30;101807.84;5032478;28;20040;-69
2021/03/17 02:56:41;;;;;;;9.32;2.35;;;;;;;-1.88;88.16;101800.81;5015044;28;20131;-69
2021/03/17 02:59:07;;;;;;;12.82;3.17;;;;;;;-1.83;88.40;101799.72;5032023;28;20365;-69
2021/03/17 03:01:33;;;;;;;;;;;;;;;-1.79;88.28;101803.94;4998880;28;20044;-69
2021/03/17 03:04:00;;;;;;;18.25;2.95;;;;;;;-1.77;88.26;101806.53;5032382;28;20483;-69
2021/03/17 03:06:27;;;;;;;11.18;3.40;;;;;;;-1.76;88.29;101803.81;5032154;28;20073;-69
2021/03/17 03:08:53;;;;;;;8.38;2.70;;;;;;;-1.71;88.33;101808.88;5014478;28;20071;-69
2021/03/17 03:11:18;;;;;;;;;;;;;;;-1.69;88.32;101807.06;5032390;28;20103;-69
2021/03/17 03:13:44;;;;;;;12.60;3.17;;;;;;;-1.68;88.56;101807.94;5014722;28;19917;-69
2021/03/17 03:16:12;;;;;;;19.58;5.03;;;;;;;-1.67;88.38;101817.50;5014576;28;20337;-69
2021/03/17 03:18:39;;;;;;;14.60;2.80;;;;;;;-1.60;88.47;101818.97;5014218;28;20045;-69
2021/03/17 03:21:07;;;;;;;14.82;3.72;;;;;;;-1.58;88.66;101820.63;5031838;28;20033;-69
2021/03/17 03:23:33;;;;;;;12.73;3.33;;;;;;;-1.52;88.73;101823.03;5031947;28;20037;-69
2021/03/17 03:25:58;;;;;;;11.57;3.15;;;;;;;-1.49;88.66;101833.38;5031709;28;20124;-69
2021/03/17 03:28:25;;;;;;;9.18;2.40;;;;;;;-1.48;88.42;101823.75;5014146;28;20113;-69
2021/03/17 03:30:53;;;;;;;11.52;3.33;;;;;;;-1.41;88.52;101825.22;5014375;28;20068;-69
2021/03/17 03:33:19;;;;;;;17.38;3.35;;;;;;;-1.37;88.25;101831.19;5031708;28;20041;-69
2021/03/17 03:35:45;;;;;;;16.38;3.70;;;;;;;-1.35;88.36;101835.47;5031795;28;20091;-69
2021/03/17 03:38:11;;;;;;;14.35;4.28;;;;;;;-1.32;88.15;101842.34;5031269;28;20492;-69
2021/03/17 03:40:39;;;;;;;10.38;3.08;;;;;;;-1.25;88.09;101840.34;5031583;28;20112;-69
2021/03/17 03:43:07;;;;;;;15.82;3.00;;;;;;;-1.23;88.11;101842.00;5030545;28;20045;-69
2021/03/17 03:45:34;;;;;;;12.68;3.20;;;;;;;-1.22;88.04;101848.94;5030592;28;20043;-69
2021/03/17 03:47:59;;;;;;;11.60;3.72;;;;;;;-1.18;87.99;101847.06;5030157;28;20044;-69
2021/03/17 03:50:28;;;;;;;14.35;2.88;;;;;;;-1.19;87.85;101845.38;5011959;28;20049;-69
2021/03/17 03:53:13;;;;;;;13.98;3.20;;;;;;;-1.24;87.74;101842.91;5031384;28;20117;-68
2021/03/17 03:55:49;;;;;;;18.10;4.03;;;;;;;-1.25;87.72;101846.44;5031416;28;20065;-69
2021/03/17 03:58:38;;;;;;;12.75;4.45;;;;;;;-1.28;87.88;101849.19;5031055;28;20449;-69
2021/03/17 04:01:10;;;;;;;18.13;4.53;;;;;;;-1.30;87.82;101856.25;5019987;28;20049;-69
2021/03/17 04:03:42;;;;;;;16.10;4.30;;;;;;;-1.25;87.89;101861.31;5030365;28;20141;-69
2021/03/17 04:06:10;;;;;;;14.38;4.20;;;;;;;-1.25;88.01;101859.53;5031354;28;20374;-69
2021/03/17 04:08:40;;;;;;;26.88;5.25;;;;;;;-1.22;87.89;101869.03;5013540;28;20052;-69
2021/03/17 04:11:08;;;;;;;11.60;3.80;;;;;;;-1.23;87.92;101868.19;5030376;28;20056;-69
2021/03/17 04:13:35;;;;;;;14.95;3.25;;;;;;;-1.28;87.69;101864.91;5031183;28;20060;-69
2021/03/17 04:16:01;;;;;;;9.15;4.07;;;;;;;-1.36;87.66;101867.84;5030262;28;20033;-69
2021/03/17 04:18:34;;;;;;;10.68;4.60;;;;;;;-1.37;87.72;101866.09;5030797;28;20048;-69
2021/03/17 04:21:04;;;;;;;20.13;4.00;;;;;;;-1.44;87.72;101863.78;5030187;28;20059;-69
2021/03/17 04:23:31;;;;;;;15.07;3.78;;;;;;;-1.41;87.67;101861.88;5031062;28;20041;-69
2021/03/17 04:25:57;;;;;;;16.45;4.70;;;;;;;-1.43;87.87;101863.69;5031131;28;20490;-69
2021/03/17 04:28:26;;;;;;;15.13;4.53;;;;;;;-1.51;87.69;101860.53;5030662;28;20068;-69
2021/03/17 04:30:56;;;;;;;14.48;3.80;;;;;;;-1.44;88.20;101864.63;5030223;28;20041;-69
2021/03/17 04:33:22;;;;;;;13.60;4.63;;;;;;;-1.40;88.06;101863.63;5031441;28;20120;-69
2021/03/17 04:35:53;;;;;;;13.25;5.03;;;;;;;-1.42;88.10;101868.06;5035132;28;20041;-69
2021/03/17 04:38:19;;;;;;;20.10;4.32;;;;;;;-1.36;88.25;101872.19;5034699;28;20033;-69
2021/03/17 04:40:46;;;;;;;13.15;4.85;;;;;;;-1.36;88.66;101867.84;5034933;28;20041;-69
2021/03/17 04:43:12;;;;;;;13.18;4.57;;;;;;;-1.32;88.58;101872.00;5017481;28;20454;-69
2021/03/17 04:45:38;;;;;;;27.95;6.50;;;;;;;-1.30;88.53;101875.44;5034930;28;20036;-69
2021/03/17 04:48:05;;;;;;;15.10;5.00;;;;;;;-1.27;88.43;101875.31;5033668;28;20364;-69
2021/03/17 04:50:31;;;;;;;15.00;5.25;;;;;;;-1.24;88.46;101869.13;5034590;28;20041;-69
2021/03/17 04:52:57;;;;;;;16.77;4.50;;;;;;;-1.24;88.08;101863.00;5034824;28;20059;-69
2021/03/17 04:55:22;;;;;;;12.85;4.30;;;;;;;-1.23;87.95;101859.50;5033741;28;20116;-69
2021/03/17 04:57:49;;;;;;;13.48;5.00;;;;;;;-1.16;88.43;101867.03;5034257;28;20041;-69
2021/03/17 05:00:18;;;;;;;21.02;4.82;;;;;;;-1.13;88.71;101856.44;5034572;28;20037;-69
2021/03/17 05:02:50;;;;;;;18.90;6.60;;;;;;;-1.08;88.88;101859.75;5034532;28;20060;-69
2021/03/17 05:05:16;;;;;;;14.45;5.95;;;;;;;-1.01;89.09;101855.09;5017089;28;20115;-68
2021/03/17 05:07:43;;;;;;;24.30;6.07;;;;;;;-1.06;88.87;101859.66;5034212;28;20463;-69
2021/03/17 05:10:10;;;;;;;12.48;5.90;;;;;;;-1.08;88.74;101866.75;5034181;28;20043;-69
2021/03/17 05:12:39;;;;;;;15.70;6.45;;;;;;;-1.06;88.76;101867.53;5034393;28;20482;-69
2021/03/17 05:15:07;;;;;;;23.13;6.72;;;;;;;-1.13;88.56;101861.69;5017004;28;20481;-69
2021/03/17 05:17:34;;;;;;;21.67;5.40;;;;;;;-1.18;88.46;101866.25;5016520;28;20033;-69
2021/03/17 05:19:59;;;;;;;15.30;5.20;;;;;;;-1.24;88.43;101871.75;5016904;28;20798;-69
2021/03/17 05:22:26;;;;;;;16.00;6.20;;;;;;;-1.24;88.47;101870.88;5033345;28;20103;-69
2021/03/17 05:24:52;;;;;;;21.38;5.85;;;;;;;-1.34;88.21;101871.22;5033199;28;20115;-69
2021/03/17 05:27:26;;;;;;;17.63;6.78;;;;;;;-1.39;88.24;101875.78;5034047;28;20037;-69
2021/03/17 05:29:53;;;;;;;18.35;6.55;;;;;;;-1.43;88.50;101874.19;5034131;28;20116;-69
2021/03/17 05:32:19;;;;;;;14.90;5.75;;;;;;;-1.43;88.59;101876.81;5033949;28;20059;-69
2021/03/17 05:35:00;;;;;;;19.73;7.70;;;;;;;-1.45;88.29;101870.78;5000160;28;20650;-69
2021/03/17 05:37:26;;;;;;;18.13;6.43;;;;;;;-1.41;88.45;101876.75;4999873;28;20042;-69
2021/03/17 05:39:53;;;;;;;;;;;;;;;-1.35;88.55;101880.00;5034137;28;20033;-69
2021/03/17 05:42:19;;;;;;;21.65;7.60;;;;;;;-1.31;88.56;101884.22;5033774;28;19913;-68
2021/03/17 05:44:44;;;;;;;31.17;7.70;;;;;;;-1.25;88.68;101890.13;5032996;28;20029;-69
2021/03/17 05:47:11;;;;;;;14.70;6.40;;;;;;;-1.15;88.87;101891.47;5015669;28;20037;-69
2021/03/17 05:49:38;;;;;;;17.45;7.00;;;;;;;-1.10;88.85;101894.78;5033260;28;20045;-69
2021/03/17 05:52:08;;;;;;;22.33;7.20;;;;;;;-1.08;88.69;101891.22;5016154;28;20115;-69
2021/03/17 05:54:34;;;;;;;24.27;7.15;;;;;;;-1.01;88.72;101896.19;5033601;28;20038;-69
2021/03/17 05:57:01;;;;;;;15.77;7.43;;;;;;;-0.95;88.77;101894.19;5033458;28;20049;-69
2021/03/17 05:59:28;;;;;;;20.35;8.38;;;;;;;-0.90;88.75;101897.47;5032429;28;20055;-69
2021/03/17 06:01:58;;;;;;;18.95;7.63;;;;;;;-0.87;88.55;101905.25;5033405;28;20041;-69
2021/03/17 06:04:26;;;;;;;24.60;8.27;;;;;;;-0.85;88.22;101902.53;5016006;28;20113;-69
2021/03/17 06:06:56;;;;;;;22.42;8.07;;;;;;;-0.79;88.45;101910.19;5015851;28;20139;-69
2021/03/17 06:09:23;;;;;;;26.48;8.07;;;;;;;-0.73;88.32;101909.06;5033036;28;20124;-69
2021/03/17 06:11:53;;;;;;;20.30;8.25;;;;;;;-0.70;88.48;101908.97;5032453;28;20044;-69
2021/03/17 06:14:21;;;;;;;22.45;8.65;;;;;;;-0.64;88.42;101920.03;5033206;28;20061;-69
2021/03/17 06:16:49;;;;;;;33.28;12.38;;;;;;;-0.60;88.52;101923.41;5033067;28;20481;-69
2021/03/17 06:19:16;;;;;;;27.25;9.85;;;;;;;-0.53;88.65;101916.16;5032840;28;20115;-69
2021/03/17 06:21:43;;;;;;;28.42;11.23;;;;;;;-0.41;88.77;101915.63;5033103;28;20033;-70
2021/03/17 06:24:10;;;;;;;46.72;14.50;;;;;;;-0.33;88.50;101937.19;5032069;28;20037;-69
2021/03/17 06:26:37;;;;;;;28.98;10.60;;;;;;;-0.29;88.39;101932.66;5015638;28;20083;-69
2021/03/17 06:29:03;;;;;;;24.52;10.20;;;;;;;-0.25;88.10;101928.97;5015294;28;20033;-69
2021/03/17 06:31:30;;;;;;;44.97;14.05;;;;;;;-0.36;88.32;101926.78;5032877;28;20095;-69
2021/03/17 06:33:55;;;;;;;40.25;14.98;;;;;;;-0.21;89.49;101930.56;5015453;28;20041;-69
2021/03/17 06:36:26;;;;;;;47.55;15.93;;;;;;;-0.11;89.15;101934.50;5032854;28;20465;-69
2021/03/17 06:39:10;;;;;;;42.33;14.38;;;;;;;0.02;89.46;101937.44;5032321;28;20516;-69
2021/03/17 06:41:55;;;;;;;38.50;14.95;;;;;;;0.24;89.42;101934.78;5032385;28;20037;-69
2021/03/17 06:44:26;;;;;;;43.15;12.48;;;;;;;0.11;88.71;101938.84;5030984;28;20095;-69
2021/03/17 06:47:17;;;;;;;38.03;12.30;;;;;;;0.14;88.77;101947.44;5030963;28;20037;-69
2021/03/17 06:49:47;;;;;;;48.97;15.18;;;;;;;0.08;88.69;101938.97;5030456;28;20033;-69
2021/03/17 06:52:34;;;;;;;66.45;15.65;;;;;;;-0.02;88.85;101951.66;5030758;28;20080;-69
2021/03/17 06:55:05;;;;;;;30.30;13.27;;;;;;;0.01;89.21;101950.66;5030752;28;20136;-68
2021/03/17 06:57:31;;;;;;;30.33;13.05;;;;;;;0.15;89.41;101950.94;5030470;28;20403;-69
2021/03/17 07:00:30;;;;;;;46.87;15.60;;;;;;;0.12;89.32;101951.06;5032388;28;20057;-69
2021/03/17 07:03:13;;;;;;;58.92;16.73;;;;;;;0.10;89.40;101955.53;5032137;28;20107;-69
2021/03/17 07:05:47;;;;;;;66.25;16.15;;;;;;;0.11;89.65;101951.97;5032275;28;20168;-69
2021/03/17 07:08:26;;;;;;;40.75;15.57;;;;;;;0.14;89.73;101944.81;5031949;28;20083;-69
2021/03/17 07:11:00;;;;;;;53.90;19.20;;;;;;;0.15;89.94;101961.44;5032035;28;20135;-69
2021/03/17 07:13:27;;;;;;;59.97;18.70;;;;;;;0.17;90.18;101962.22;5032207;28;20336;-69
2021/03/17 07:15:58;;;;;;;57.88;17.60;;;;;;;0.17;90.53;101959.59;5032045;28;20064;-69
2021/03/17 07:18:29;;;;;;;55.13;18.88;;;;;;;0.27;90.21;101949.53;5031768;28;20025;-69
2021/03/17 07:21:04;;;;;;;50.30;19.00;;;;;;;0.38;90.44;101955.19;5031314;28;20376;-69
2021/03/17 07:23:33;;;;;;;47.80;18.83;;;;;;;0.47;89.93;101959.16;5013962;28;20590;-69
2021/03/17 07:26:04;;;;;;;33.20;16.65;;;;;;;0.49;89.81;101962.59;5012812;28;20071;-69
2021/03/17 07:28:51;;;;;;;58.00;17.77;;;;;;;0.38;89.59;101970.94;5028971;28;20037;-69
2021/03/17 07:31:16;;;;;;;42.30;16.00;;;;;;;0.48;90.06;101967.00;5012494;28;20048;-69
2021/03/17 07:33:42;;;;;;;49.87;17.13;;;;;;;0.59;89.86;101959.50;5029778;28;20041;-69
2021/03/17 07:36:08;;;;;;;42.85;18.00;;;;;;;0.71;89.81;101965.13;5011958;28;20570;-69
2021/03/17 07:38:34;;;;;;;39.22;18.45;;;;;;;0.80;89.94;101967.34;5012097;28;20038;-69
2021/03/17 07:41:00;;;;;;;50.22;17.92;;;;;;;0.78;89.76;101972.66;4997228;28;20382;-69
2021/03/17 07:43:26;;;;;;;48.83;19.70;;;;;;;0.68;89.60;101976.63;5031985;28;20134;-69
2021/03/17 07:45:53;;;;;;;45.28;19.23;;;;;;;0.83;89.60;101973.28;5031470;28;20041;-69
2021/03/17 07:48:20;;;;;;;45.08;16.85;;;;;;;0.80;89.28;101983.97;5031088;28;20029;-69
2021/03/17 07:50:47;;;;;;;45.30;18.52;;;;;;;0.89;89.22;101979.19;5031380;28;20030;-69
2021/03/17 07:53:17;;;;;;;43.47;17.77;;;;;;;0.94;89.32;101974.59;5031454;28;20048;-69
2021/03/17 07:55:45;;;;;;;48.13;18.70;;;;;;;1.02;89.08;101982.97;5014006;28;20044;-69
2021/03/17 07:58:13;;;;;;;39.63;18.95;;;;;;;1.10;88.92;101975.59;5031049;28;20120;-69
2021/03/17 08:00:39;;;;;;;42.67;17.73;;;;;;;1.34;88.86;101985.91;5031396;28;20176;-69
2021/03/17 08:03:05;;;;;;;41.92;18.50;;;;;;;1.51;88.16;101987.72;4997346;28;20128;-69
2021/03/17 08:05:31;;;;;;;38.27;16.63;;;;;;;1.71;87.53;101992.88;5031162;28;20037;-68
2021/03/17 08:08:00;;;;;;;43.60;17.88;;;;;;;1.66;86.52;101995.75;5030215;28;20291;-65
2021/03/17 08:10:25;;;;;;;46.50;18.00;;;;;;;1.81;86.53;101993.28;5013774;28;20528;-65
2021/03/17 08:12:51;;;;;;;33.47;14.53;;;;;;;2.05;86.58;101997.31;5031164;28;20041;-65
2021/03/17 08:15:17;;;;;;;35.45;17.48;;;;;;;2.24;86.09;101996.41;5031202;28;20033;-65
2021/03/17 08:17:44;;;;;;;33.30;17.05;;;;;;;2.02;85.01;102002.75;5030733;28;20038;-68
2021/03/17 08:20:27;;;;;;;38.47;16.30;;;;;;;2.04;84.95;102003.53;5031077;28;20057;-69
2021/03/17 08:22:54;;;;;;;33.90;16.13;;;;;;;2.20;84.86;102005.38;5013714;28;20037;-69
2021/03/17 08:25:44;;;;;;;31.63;15.73;;;;;;;2.52;84.77;102001.94;5031147;28;20038;-69
2021/03/17 08:28:19;;;;;;;43.78;16.98;;;;;;;2.70;83.32;101999.28;5013285;28;20029;-69
2021/03/17 08:30:45;;;;;;;28.75;13.73;;;;;;;3.04;83.12;102002.75;5013734;28;20517;-69
2021/03/17 08:33:10;;;;;;;33.53;14.88;;;;;;;3.21;81.70;102004.47;5030885;28;20037;-65
2021/03/17 08:36:11;;;;;;;27.30;13.02;;;;;;;3.20;81.34;102008.91;5013636;28;20045;-65
2021/03/17 08:38:56;;;;;;;37.65;16.00;;;;;;;3.55;80.82;102008.75;5013068;28;20049;-69
2021/03/17 08:41:44;;;;;;;29.42;14.13;;;;;;;4.34;78.36;102019.16;5030992;28;20056;-69
2021/03/17 08:44:11;;;;;;;24.60;13.05;;;;;;;5.41;76.30;102013.50;5030002;28;20048;-65
2021/03/17 08:46:37;;;;;;;26.10;12.65;;;;;;;5.77;71.33;102017.38;5013056;28;20072;-65
2021/03/17 08:49:06;;;;;;;23.42;12.07;;;;;;;6.09;70.38;102013.47;5032503;28;20120;-65
2021/03/17 08:51:47;;;;;;;22.65;11.18;;;;;;;6.25;67.49;102018.59;5030939;28;20049;-65
2021/03/17 08:57:03;;;;;;;22.95;11.07;;;;;;;7.25;64.92;102022.28;5030834;28;20080;-65
2021/03/17 08:59:56;;;;;;;22.42;11.25;;;;;;;8.31;63.07;102025.13;5030437;28;20041;-65
2021/03/17 09:02:42;;;;;;;31.35;11.82;;;;;;;8.38;62.28;102034.34;5030796;28;20498;-65
2021/03/17 09:05:21;;;;;;;19.50;10.20;;;;;;;7.56;64.28;102038.66;5030520;28;20038;-65
2021/03/17 09:08:01;;;;;;;24.38;12.15;;;;;;;7.61;63.73;102037.41;5030290;28;20455;-65
2021/03/17 09:10:39;;;;;;;24.63;13.77;;;;;;;7.30;64.86;102037.91;5029946;28;20044;-69
2021/03/17 09:13:04;;;;;;;27.70;13.90;;;;;;;7.43;64.41;102043.19;5013374;28;20037;-69
2021/03/17 09:15:42;;;;;;;21.53;12.90;;;;;;;7.45;64.00;102041.28;5029634;28;20382;-69
2021/03/17 09:18:08;;;;;;;24.23;12.63;;;;;;;7.45;64.15;102038.63;5029919;28;20112;-70
2021/03/17 09:20:41;;;;;;;22.55;11.52;;;;;;;7.42;65.44;102041.47;5031754;28;20526;-69
2021/03/17 09:23:10;;;;;;;25.38;12.77;;;;;;;7.22;65.44;102045.56;5034228;28;20389;-70
2021/03/17 09:25:53;;;;;;;31.70;12.82;;;;;;;7.51;64.77;102052.28;5034091;28;20370;-69
2021/03/17 09:28:33;;;;;;;23.20;12.52;;;;;;;7.51;64.77;102054.09;5032968;28;20060;-65
2021/03/17 09:31:04;;;;;;;18.73;11.25;;;;;;;8.48;62.78;102055.81;5033980;28;20040;-65
2021/03/17 09:33:31;;;;;;;22.75;13.02;;;;;;;7.37;65.46;102049.78;5034048;28;20056;-70
2021/03/17 09:36:04;;;;;;;24.15;11.57;;;;;;;7.32;65.39;102054.56;5032869;28;20060;-70
2021/03/17 09:38:32;;;;;;;18.70;12.40;;;;;;;7.99;61.39;102052.34;5033586;28;20052;-70
2021/03/17 09:41:07;;;;;;;25.08;12.50;;;;;;;8.96;59.93;102052.13;5033672;28;20462;-68
2021/03/17 09:43:34;;;;;;;26.33;11.18;;;;;;;8.17;61.30;102054.56;5033966;28;20504;-68
2021/03/17 09:46:11;;;;;;;19.27;11.05;;;;;;;9.45;59.52;102061.56;5033603;28;20470;-68
2021/03/17 09:48:36;;;;;;;21.27;10.88;;;;;;;9.48;58.14;102069.31;5032350;28;20039;-68
2021/03/17 09:51:02;;;;;;;20.30;10.83;;;;;;;9.44;57.96;102065.22;5033599;28;20104;-68
2021/03/17 09:53:27;;;;;;;17.07;10.37;;;;;;;9.53;58.92;102059.16;5033545;28;20087;-68
2021/03/17 09:55:53;;;;;;;19.07;10.20;;;;;;;11.04;54.49;102059.94;5033672;28;20040;-64
2021/03/17 09:58:19;;;;;;;18.52;10.02;;;;;;;10.52;54.27;102059.91;5032409;28;20493;-68
2021/03/17 10:00:48;;;;;;;23.07;10.50;;;;;;;9.64;57.20;102074.28;5016215;28;20045;-68
2021/03/17 10:03:14;;;;;;;15.80;10.43;;;;;;;9.84;57.62;102075.34;5033442;28;20386;-64
2021/03/17 10:05:40;;;;;;;;;;;;;;;9.53;58.34;102077.81;5034001;28;20041;-64
2021/03/17 10:08:06;;;;;;;;;;;;;;;9.42;56.24;102076.00;5032467;28;19909;-64
2021/03/17 10:10:32;;;;;;;18.15;9.55;;;;;;;9.47;57.72;102081.81;5032226;28;19913;-64
2021/03/17 10:12:57;;;;;;;14.70;8.88;;;;;;;9.13;57.95;102083.66;5032258;28;20064;-68
2021/03/17 10:15:24;;;;;;;19.20;9.43;;;;;;;9.49;57.08;102076.34;5033312;28;20048;-64
2021/03/17 10:17:50;;;;;;;15.18;8.70;;;;;;;10.23;54.03;102070.34;5031722;28;20123;-64
2021/03/17 10:20:22;;;;;;;16.05;9.38;;;;;;;10.23;54.89;102070.34;5033241;28;20451;-68
2021/03/17 10:22:49;;;;;;;17.40;8.20;;;;;;;10.73;55.52;102070.59;5032941;28;20033;-69
2021/03/17 10:25:16;;;;;;;20.25;9.07;;;;;;;11.13;52.15;102083.19;5033045;28;20099;-68
2021/03/17 10:27:53;;;;;;;17.75;8.60;;;;;;;9.78;55.82;102076.66;5031838;28;20033;-64
2021/03/17 10:30:31;;;;;;;17.45;9.82;;;;;;;10.47;54.97;102062.13;5033012;28;20086;-64
2021/03/17 10:33:01;;;;;;;18.63;7.82;;;;;;;11.81;50.56;102062.84;5032035;28;20675;-68
2021/03/17 10:35:29;;;;;;;11.05;6.95;;;;;;;10.67;51.78;102068.44;5015487;28;20052;-68
2021/03/17 10:37:58;;;;;;;12.13;7.90;;;;;;;11.12;51.79;102068.13;5015067;28;20124;-68
2021/03/17 10:40:25;;;;;;;15.48;7.35;;;;;;;11.52;51.58;102067.28;5015130;28;20037;-68
2021/03/17 10:42:56;;;;;;;13.10;7.60;;;;;;;12.27;49.40;102065.00;4999106;28;20383;-69
2021/03/17 10:45:29;;;;;;;13.35;7.78;;;;;;;12.56;49.33;102068.53;4998593;28;20029;-69
2021/03/17 10:47:55;;;;;;;11.40;6.70;;;;;;;13.00;46.57;102074.22;5032315;28;20132;-69
2021/03/17 10:50:31;;;;;;;11.43;6.47;;;;;;;13.96;43.77;102063.16;5032320;28;20136;-68
2021/03/17 10:52:56;;;;;;;11.40;6.25;;;;;;;13.86;44.80;102068.59;4998793;28;20144;-68
2021/03/17 10:55:25;;;;;;;11.33;6.90;;;;;;;14.27;42.98;102062.75;5014471;28;20407;-68
2021/03/17 10:57:51;;;;;;;14.68;7.18;;;;;;;14.42;41.35;102058.53;5032082;28;20637;-68
2021/03/17 11:00:21;;;;;;;12.90;6.97;;;;;;;14.26;43.22;102066.47;5032159;28;20045;-68
2021/03/17 11:02:47;;;;;;;11.98;6.68;;;;;;;15.07;41.75;102057.28;5014806;28;20044;-68
2021/03/17 11:05:14;;;;;;;12.00;6.57;;;;;;;10.49;48.75;102076.22;5032047;28;20037;-68
2021/03/17 11:08:08;;;;;;;9.57;6.68;;;;;;;11.75;48.60;102071.44;5014589;28;20279;-68
2021/03/17 11:10:52;;;;;;;10.02;5.88;;;;;;;10.97;47.49;102068.47;5030915;28;20043;-68
2021/03/17 11:13:20;;;;;;;11.20;6.28;;;;;;;10.19;51.15;102074.25;5014803;28;20034;-69
2021/03/17 11:15:50;;;;;;;7.97;4.97;;;;;;;10.85;50.09;102077.56;5015003;28;20033;-68
2021/03/17 11:18:51;;;;;;;10.20;5.18;;;;;;;12.59;45.83;102065.53;5031849;28;20037;-65
2021/03/17 11:21:29;;;;;;;11.38;5.78;;;;;;;13.22;44.77;102070.31;5031321;28;20056;-66
2021/03/17 11:23:58;;;;;;;12.13;6.18;;;;;;;12.46;45.70;102070.38;5032130;28;20423;-64
2021/03/17 11:26:29;;;;;;;9.50;6.28;;;;;;;10.71;49.19;102069.88;5031790;28;20073;-64
2021/03/17 11:28:58;;;;;;;9.27;6.47;;;;;;;9.65;51.90;102071.50;5031613;28;20033;-64
2021/03/17 11:31:30;;;;;;;12.25;6.22;;;;;;;11.24;50.30;102075.09;5031513;28;20056;-64
2021/03/17 11:33:57;;;;;;;8.13;4.78;;;;;;;12.53;45.59;102059.94;5031780;28;20044;-66
2021/03/17 11:36:23;;;;;;;7.22;4.43;;;;;;;12.73;44.68;102071.44;5031725;28;20445;-70
2021/03/17 11:38:49;;;;;;;8.30;4.88;;;;;;;12.79;44.10;102068.22;5030401;28;20042;-70
2021/03/17 11:41:15;;;;;;;9.60;4.80;;;;;;;12.72;45.59;102070.63;4998067;28;20048;-70